createdAt,value
2022-12-24T00:00:05.820Z,0
2022-12-24T00:05:23.373Z,0
2022-12-24T00:10:40.910Z,0
2022-12-24T00:16:00.357Z,0
2022-12-24T00:21:17.858Z,0
2022-12-24T00:26:52.308Z,0
2022-12-24T00:32:09.829Z,0
2022-12-24T00:37:27.176Z,0
2022-12-24T00:42:44.469Z,0
2022-12-24T00:48:01.715Z,0
2022-12-24T00:53:19.139Z,0
2022-12-24T00:58:36.999Z,0
2022-12-24T01:03:54.328Z,0
2022-12-24T01:09:11.723Z,0
2022-12-24T01:14:29.217Z,0
2022-12-24T01:19:46.419Z,0
2022-12-24T01:25:04.070Z,0
2022-12-24T01:30:23.361Z,0
2022-12-24T01:35:43.362Z,0
2022-12-24T01:41:07.832Z,0
2022-12-24T01:46:25.343Z,0
2022-12-24T01:51:42.786Z,0
2022-12-24T01:57:00.020Z,0
2022-12-24T02:02:17.630Z,0
2022-12-24T02:12:57.651Z,0
2022-12-24T02:18:15.439Z,0
2022-12-24T02:23:32.730Z,0
2022-12-24T02:28:50.035Z,0
2022-12-24T02:34:07.321Z,0
2022-12-24T02:39:27.100Z,0
2022-12-24T02:44:47.856Z,0
2022-12-24T02:50:05.219Z,0
2022-12-24T02:55:22.461Z,0
2022-12-24T03:00:40.027Z,0
2022-12-24T03:05:57.661Z,0
2022-12-24T03:11:14.931Z,0
2022-12-24T03:16:43.435Z,0
2022-12-24T03:22:00.864Z,0
2022-12-24T03:27:18.135Z,0
2022-12-24T03:32:35.165Z,0
2022-12-24T03:37:59.667Z,0
2022-12-24T03:43:17.227Z,0
2022-12-24T03:48:34.562Z,0
2022-12-24T03:59:12.197Z,0
2022-12-24T04:04:37.709Z,0
2022-12-24T04:09:55.303Z,0
2022-12-24T04:15:12.522Z,0
2022-12-24T04:20:32.067Z,0
2022-12-24T04:25:49.413Z,0
2022-12-24T04:31:06.696Z,0
2022-12-24T04:36:24.250Z,0
2022-12-24T04:42:02.914Z,0
2022-12-24T04:47:20.630Z,0
2022-12-24T04:52:38.191Z,0
2022-12-24T04:57:55.614Z,0
2022-12-24T05:03:12.872Z,0
2022-12-24T05:08:30.354Z,0
2022-12-24T05:13:48.097Z,0
2022-12-24T05:19:12.815Z,0
2022-12-24T05:24:30.730Z,0
2022-12-24T05:29:48.110Z,0
2022-12-24T05:35:11.186Z,0
2022-12-24T05:40:28.353Z,0
2022-12-24T05:45:45.847Z,0
2022-12-24T05:51:10.295Z,0
2022-12-24T05:56:28.000Z,0
2022-12-24T06:01:48.611Z,0
2022-12-24T06:07:06.101Z,0
2022-12-24T06:12:23.341Z,0
2022-12-24T06:17:40.819Z,0
2022-12-24T06:22:58.151Z,0
2022-12-24T06:28:15.416Z,0
2022-12-24T06:33:41.420Z,0
2022-12-24T06:38:58.592Z,0
2022-12-24T06:44:18.672Z,0
2022-12-24T06:49:36.143Z,0
2022-12-24T06:54:55.593Z,0
2022-12-24T07:00:13.188Z,0
2022-12-24T07:05:30.340Z,0
2022-12-24T07:10:54.405Z,0
2022-12-24T07:16:11.552Z,17.9
2022-12-24T07:21:28.749Z,29.2
2022-12-24T07:26:45.926Z,86.7
2022-12-24T07:32:02.819Z,140
2022-12-24T07:37:19.776Z,198.3
2022-12-24T07:42:36.635Z,270.8
2022-12-24T07:48:14.531Z,511.7
2022-12-24T07:53:31.809Z,787.1
2022-12-24T07:58:48.708Z,635.4
2022-12-24T08:04:05.858Z,837.5
2022-12-24T08:09:23.163Z,991.7
2022-12-24T08:15:03.629Z,1536.7
2022-12-24T08:25:30.986Z,3133.3
2022-12-24T08:30:47.891Z,3147.9
2022-12-24T08:36:04.965Z,3507.9
2022-12-24T08:41:46.658Z,4162.1
2022-12-24T08:47:11.812Z,2640.4
2022-12-24T08:52:36.876Z,2590
2022-12-24T08:58:01.876Z,3473.3
2022-12-24T09:03:27.649Z,3000.4
2022-12-24T09:08:52.998Z,3884.6
2022-12-24T09:14:18.478Z,2438.8
2022-12-24T09:19:43.769Z,2827.5
2022-12-24T09:25:08.649Z,2302.5
2022-12-24T09:30:34.103Z,5026.7
2022-12-24T09:35:57.370Z,4459.2
2022-12-24T09:41:14.349Z,4879.2
2022-12-24T09:46:31.546Z,4422.1
2022-12-24T09:51:48.419Z,3417.1
2022-12-24T09:57:05.208Z,2369.2
2022-12-24T10:02:22.352Z,4107.1
2022-12-24T10:07:42.164Z,5635.8
2022-12-24T10:12:59.412Z,5827.1
2022-12-24T10:18:19.610Z,5365.8
2022-12-24T10:23:36.655Z,3570.4
2022-12-24T10:28:53.774Z,6082.5
2022-12-24T10:34:10.921Z,5943.8
2022-12-24T10:39:28.042Z,4982.9
2022-12-24T10:44:45.013Z,6596.7
2022-12-24T10:50:05.012Z,4977.1
2022-12-24T11:00:42.856Z,6738.8
2022-12-24T11:05:58.950Z,6437.1
2022-12-24T11:11:15.575Z,4089.6
2022-12-24T11:16:32.363Z,3337.1
2022-12-24T11:26:59.193Z,2835.4
2022-12-24T11:32:16.153Z,6578.3
2022-12-24T11:37:36.882Z,4880.8
2022-12-24T11:42:53.514Z,4142.1
2022-12-24T11:48:10.171Z,3638.8
2022-12-24T11:53:27.262Z,4000.8
2022-12-24T11:58:44.399Z,4987.5
2022-12-24T12:04:02.028Z,10920.8
2022-12-24T12:09:18.436Z,4744.2
2022-12-24T12:14:38.680Z,8218.3
2022-12-24T12:19:55.021Z,4117.5
2022-12-24T12:25:13.659Z,5429.6
2022-12-24T12:30:32.655Z,5005.4
2022-12-24T12:35:49.565Z,4326.2
2022-12-24T12:41:15.409Z,3291.7
2022-12-24T12:51:43.008Z,4733.3
2022-12-24T12:56:59.915Z,4899.2
2022-12-24T13:02:17.119Z,4586.7
2022-12-24T13:07:39.540Z,3918.8
2022-12-24T13:12:56.439Z,4276.2
2022-12-24T13:18:13.491Z,4974.2
2022-12-24T13:23:30.644Z,3992.5
2022-12-24T13:28:58.163Z,5613.8
2022-12-24T13:34:15.466Z,7553.3
2022-12-24T13:39:34.760Z,3253.3
2022-12-24T13:44:51.702Z,2488.3
2022-12-24T13:50:08.369Z,2071.7
2022-12-24T13:55:25.263Z,2412.9
2022-12-24T14:00:42.210Z,2721.7
2022-12-24T14:05:59.385Z,3286.3
2022-12-24T14:11:16.665Z,2529.2
2022-12-24T14:16:33.392Z,2148.3
2022-12-24T14:27:17.572Z,1653.3
2022-12-24T14:37:57.613Z,1344.6
2022-12-24T14:43:30.254Z,1565.8
2022-12-24T14:59:37.342Z,762.5
2022-12-24T15:05:02.138Z,629.2
2022-12-24T15:10:26.938Z,492.9
2022-12-24T15:16:06.315Z,429.6
2022-12-24T15:21:23.471Z,301.7
2022-12-24T15:26:41.331Z,235.8
2022-12-24T15:32:03.316Z,139.2
2022-12-24T15:37:20.504Z,96.7
2022-12-24T15:42:37.460Z,71.7
2022-12-24T15:47:54.341Z,41.2
2022-12-24T15:53:19.168Z,18.3
2022-12-24T15:58:39.218Z,0
2022-12-24T16:03:56.356Z,0
2022-12-24T16:09:13.698Z,0
2022-12-24T16:14:31.138Z,0
2022-12-24T16:19:50.540Z,0
2022-12-24T16:25:07.777Z,0
2022-12-24T16:30:24.985Z,0
2022-12-24T16:35:42.191Z,0
2022-12-24T16:40:59.719Z,0
2022-12-24T16:46:17.262Z,0
2022-12-24T16:51:34.652Z,0
2022-12-24T16:56:56.004Z,0
2022-12-24T17:02:14.895Z,0
2022-12-24T17:07:32.722Z,0
2022-12-24T17:12:49.956Z,0
2022-12-24T17:18:09.821Z,0
2022-12-24T17:23:29.867Z,0
2022-12-24T17:28:46.995Z,0
2022-12-24T17:34:04.526Z,0
2022-12-24T17:39:27.335Z,0
2022-12-24T17:44:47.730Z,0
2022-12-24T17:50:05.154Z,0
2022-12-24T17:55:24.757Z,0
2022-12-24T18:00:42.512Z,0
2022-12-24T18:05:59.922Z,0
2022-12-24T18:11:17.285Z,0
2022-12-24T18:16:39.098Z,0
2022-12-24T18:21:56.431Z,0
2022-12-24T18:27:15.911Z,0
2022-12-24T18:32:40.892Z,0
2022-12-24T18:37:58.690Z,0
2022-12-24T18:43:16.132Z,0
2022-12-24T18:48:54.730Z,0
2022-12-24T18:54:12.325Z,0
2022-12-24T18:59:31.132Z,0
2022-12-24T19:04:48.675Z,0
2022-12-24T19:10:08.057Z,0
2022-12-24T19:15:28.241Z,0
2022-12-24T19:20:48.074Z,0
2022-12-24T19:26:05.373Z,0
2022-12-24T19:31:22.764Z,0
2022-12-24T19:36:46.063Z,0
2022-12-24T19:42:03.489Z,0
2022-12-24T19:47:28.120Z,0
2022-12-24T19:52:45.524Z,0
2022-12-24T19:58:03.041Z,0
2022-12-24T20:03:20.404Z,0
2022-12-24T20:08:37.749Z,0
2022-12-24T20:13:54.895Z,0
2022-12-24T20:19:12.180Z,0
2022-12-24T20:24:29.488Z,0
2022-12-24T20:29:46.820Z,0
2022-12-24T20:35:04.245Z,0
2022-12-24T20:40:21.454Z,0
2022-12-24T20:45:38.718Z,0
2022-12-24T20:50:55.978Z,0
2022-12-24T20:56:13.139Z,0
2022-12-24T21:01:30.689Z,0
2022-12-24T21:06:48.310Z,0
2022-12-24T21:12:05.685Z,0
2022-12-24T21:17:22.850Z,0
2022-12-24T21:22:42.462Z,0
2022-12-24T21:28:00.054Z,0
2022-12-24T21:33:17.366Z,0
2022-12-24T21:38:34.593Z,0
2022-12-24T21:43:51.753Z,0
2022-12-24T21:49:09.256Z,0
2022-12-24T21:54:27.228Z,0
2022-12-24T21:59:47.170Z,0
2022-12-24T22:05:04.888Z,0
2022-12-24T22:10:25.259Z,0
2022-12-24T22:15:42.477Z,0
2022-12-24T22:20:59.732Z,0
2022-12-24T22:26:17.241Z,0
2022-12-24T22:33:04.350Z,0
2022-12-24T22:38:22.519Z,0
2022-12-24T22:43:40.012Z,0
2022-12-24T22:48:57.471Z,0
2022-12-24T22:54:14.685Z,0
2022-12-24T23:04:54.781Z,0
2022-12-24T23:10:12.136Z,0
2022-12-24T23:15:29.431Z,0
2022-12-24T23:20:47.252Z,0
2022-12-24T23:26:04.645Z,0
2022-12-24T23:31:22.196Z,0
2022-12-24T23:36:45.514Z,0
2022-12-24T23:42:02.834Z,0
2022-12-24T23:47:28.496Z,0
2022-12-24T23:52:46.363Z,0
2022-12-24T23:58:06.701Z,0
